sensor_id;sensor_type;location;lat;lon;timestamp;pressure;altitude;pressure_sealevel;temperature;humidity
40872;BME280;26591;43.264;26.940;2023-03-25T00:01:09;98686.53;;;9.90;69.30
40872;BME280;26591;43.264;26.940;2023-03-25T00:03:39;98681.13;;;9.84;69.53
40872;BME280;26591;43.264;26.940;2023-03-25T00:06:12;98677.16;;;9.88;69.63
40872;BME280;26591;43.264;26.940;2023-03-25T00:08:38;98671.72;;;9.73;69.59
40872;BME280;26591;43.264;26.940;2023-03-25T00:11:04;98669.78;;;9.58;70.03
40872;BME280;26591;43.264;26.940;2023-03-25T00:13:31;98662.84;;;9.57;70.27
40872;BME280;26591;43.264;26.940;2023-03-25T00:15:58;98658.13;;;9.28;71.40
40872;BME280;26591;43.264;26.940;2023-03-25T00:18:27;98656.31;;;9.12;71.95
40872;BME280;26591;43.264;26.940;2023-03-25T00:21:00;98653.19;;;8.92;72.43
40872;BME280;26591;43.264;26.940;2023-03-25T00:23:27;98649.88;;;8.90;72.52
40872;BME280;26591;43.264;26.940;2023-03-25T00:25:53;98647.09;;;8.91;72.86
40872;BME280;26591;43.264;26.940;2023-03-25T00:28:25;98646.44;;;8.89;72.09
40872;BME280;26591;43.264;26.940;2023-03-25T00:30:52;98648.25;;;8.72;72.31
40872;BME280;26591;43.264;26.940;2023-03-25T00:33:18;98644.94;;;8.78;73.09
40872;BME280;26591;43.264;26.940;2023-03-25T00:35:43;98646.09;;;8.92;72.11
40872;BME280;26591;43.264;26.940;2023-03-25T00:38:10;98640.97;;;8.82;72.05
40872;BME280;26591;43.264;26.940;2023-03-25T00:40:36;98637.69;;;8.80;71.82
40872;BME280;26591;43.264;26.940;2023-03-25T00:43:03;98628.78;;;8.98;72.59
40872;BME280;26591;43.264;26.940;2023-03-25T00:45:29;98621.38;;;8.93;72.28
40872;BME280;26591;43.264;26.940;2023-03-25T00:48:07;98626.13;;;8.81;72.16
40872;BME280;26591;43.264;26.940;2023-03-25T00:50:32;98630.94;;;8.78;72.37
40872;BME280;26591;43.264;26.940;2023-03-25T00:53:00;98619.22;;;8.89;71.71
40872;BME280;26591;43.264;26.940;2023-03-25T00:55:27;98612.47;;;8.78;72.34
40872;BME280;26591;43.264;26.940;2023-03-25T00:57:53;98609.97;;;8.60;72.71
40872;BME280;26591;43.264;26.940;2023-03-25T01:00:18;98609.47;;;8.56;72.85
40872;BME280;26591;43.264;26.940;2023-03-25T01:02:44;98603.06;;;8.59;72.96
40872;BME280;26591;43.264;26.940;2023-03-25T01:05:10;98614.59;;;8.58;72.34
40872;BME280;26591;43.264;26.940;2023-03-25T01:07:37;98613.09;;;8.55;72.49
40872;BME280;26591;43.264;26.940;2023-03-25T01:10:04;98604.47;;;8.45;72.86
40872;BME280;26591;43.264;26.940;2023-03-25T01:12:30;98611.47;;;8.62;72.58
40872;BME280;26591;43.264;26.940;2023-03-25T01:14:55;98605.19;;;8.63;72.45
40872;BME280;26591;43.264;26.940;2023-03-25T01:17:21;98596.28;;;8.48;72.52
40872;BME280;26591;43.264;26.940;2023-03-25T01:19:47;98598.53;;;8.43;72.77
40872;BME280;26591;43.264;26.940;2023-03-25T01:22:12;98594.91;;;8.27;72.94
40872;BME280;26591;43.264;26.940;2023-03-25T01:24:38;98595.41;;;8.39;72.86
40872;BME280;26591;43.264;26.940;2023-03-25T01:27:03;98598.72;;;8.41;72.40
40872;BME280;26591;43.264;26.940;2023-03-25T01:29:29;98589.47;;;8.29;72.97
40872;BME280;26591;43.264;26.940;2023-03-25T01:31:55;98592.56;;;8.16;73.18
40872;BME280;26591;43.264;26.940;2023-03-25T01:34:21;98588.41;;;8.05;73.70
40872;BME280;26591;43.264;26.940;2023-03-25T01:36:47;98582.84;;;8.08;73.66
40872;BME280;26591;43.264;26.940;2023-03-25T01:39:15;98590.03;;;7.89;74.32
40872;BME280;26591;43.264;26.940;2023-03-25T01:41:42;98584.16;;;8.12;74.33
40872;BME280;26591;43.264;26.940;2023-03-25T01:46:55;98584.19;;;8.29;73.86
40872;BME280;26591;43.264;26.940;2023-03-25T01:49:32;98577.13;;;8.37;72.80
40872;BME280;26591;43.264;26.940;2023-03-25T01:52:06;98573.81;;;8.19;73.53
40872;BME280;26591;43.264;26.940;2023-03-25T01:54:33;98572.16;;;8.18;73.23
40872;BME280;26591;43.264;26.940;2023-03-25T01:57:03;98568.66;;;8.17;73.54
40872;BME280;26591;43.264;26.940;2023-03-25T01:59:29;98557.66;;;8.30;73.02
40872;BME280;26591;43.264;26.940;2023-03-25T02:01:57;98558.31;;;8.16;73.14
40872;BME280;26591;43.264;26.940;2023-03-25T02:04:38;98551.41;;;8.31;72.86
40872;BME280;26591;43.264;26.940;2023-03-25T02:07:07;98551.56;;;8.21;72.79
40872;BME280;26591;43.264;26.940;2023-03-25T02:09:35;98544.13;;;8.25;72.52
40872;BME280;26591;43.264;26.940;2023-03-25T02:12:01;98538.06;;;8.33;72.50
40872;BME280;26591;43.264;26.940;2023-03-25T02:14:30;98544.81;;;8.35;72.31
40872;BME280;26591;43.264;26.940;2023-03-25T02:25:28;98535.09;;;8.28;72.48
40872;BME280;26591;43.264;26.940;2023-03-25T02:31:10;98524.53;;;8.11;72.43
40872;BME280;26591;43.264;26.940;2023-03-25T02:39:53;98521.75;;;8.29;72.66
40872;BME280;26591;43.264;26.940;2023-03-25T02:47:46;98513.50;;;8.24;71.91
40872;BME280;26591;43.264;26.940;2023-03-25T02:50:16;98510.38;;;8.29;71.55
40872;BME280;26591;43.264;26.940;2023-03-25T02:52:50;98511.03;;;8.22;71.73
40872;BME280;26591;43.264;26.940;2023-03-25T02:55:18;98516.31;;;8.31;71.74
40872;BME280;26591;43.264;26.940;2023-03-25T02:58:05;98508.41;;;8.22;71.91
40872;BME280;26591;43.264;26.940;2023-03-25T03:00:34;98508.22;;;8.16;72.42
40872;BME280;26591;43.264;26.940;2023-03-25T03:03:04;98506.56;;;8.06;72.24
40872;BME280;26591;43.264;26.940;2023-03-25T03:05:34;98506.88;;;7.95;72.76
40872;BME280;26591;43.264;26.940;2023-03-25T03:11:04;98500.97;;;8.09;72.88
40872;BME280;26591;43.264;26.940;2023-03-25T03:19:12;98497.66;;;7.91;72.71
40872;BME280;26591;43.264;26.940;2023-03-25T03:21:58;98501.88;;;7.67;73.45
40872;BME280;26591;43.264;26.940;2023-03-25T03:32:34;98494.78;;;7.59;74.42
40872;BME280;26591;43.264;26.940;2023-03-25T03:34:56;98493.66;;;7.70;74.04
40872;BME280;26591;43.264;26.940;2023-03-25T03:37:27;98497.88;;;7.46;74.11
40872;BME280;26591;43.264;26.940;2023-03-25T03:39:56;98502.41;;;7.28;74.62
40872;BME280;26591;43.264;26.940;2023-03-25T03:42:44;98499.66;;;7.38;75.18
40872;BME280;26591;43.264;26.940;2023-03-25T03:45:19;98503.34;;;7.18;75.77
40872;BME280;26591;43.264;26.940;2023-03-25T03:47:49;98503.34;;;7.18;75.27
40872;BME280;26591;43.264;26.940;2023-03-25T03:50:29;98503.03;;;7.22;75.54
40872;BME280;26591;43.264;26.940;2023-03-25T03:53:20;98500.81;;;7.43;75.10
40872;BME280;26591;43.264;26.940;2023-03-25T03:56:04;98494.41;;;7.46;74.98
40872;BME280;26591;43.264;26.940;2023-03-25T03:58:35;98491.47;;;7.57;74.11
40872;BME280;26591;43.264;26.940;2023-03-25T04:03:57;98482.53;;;7.93;75.41
40872;BME280;26591;43.264;26.940;2023-03-25T04:06:36;98497.84;;;7.98;73.85
40872;BME280;26591;43.264;26.940;2023-03-25T04:09:14;98493.19;;;7.83;73.78
40872;BME280;26591;43.264;26.940;2023-03-25T04:11:49;98482.69;;;8.00;73.33
40872;BME280;26591;43.264;26.940;2023-03-25T04:14:16;98485.81;;;8.12;73.04
40872;BME280;26591;43.264;26.940;2023-03-25T04:16:42;98480.22;;;8.06;72.86
40872;BME280;26591;43.264;26.940;2023-03-25T04:19:10;98475.44;;;8.27;72.83
40872;BME280;26591;43.264;26.940;2023-03-25T04:21:43;98487.75;;;8.84;72.45
40872;BME280;26591;43.264;26.940;2023-03-25T04:24:09;98481.22;;;9.20;72.25
40872;BME280;26591;43.264;26.940;2023-03-25T04:26:35;98478.03;;;9.64;71.14
40872;BME280;26591;43.264;26.940;2023-03-25T04:29:05;98480.06;;;10.08;68.79
40872;BME280;26591;43.264;26.940;2023-03-25T04:31:32;98480.84;;;10.41;68.26
40872;BME280;26591;43.264;26.940;2023-03-25T04:33:58;98484.47;;;10.93;67.03
40872;BME280;26591;43.264;26.940;2023-03-25T04:36:25;98486.31;;;11.22;64.13
40872;BME280;26591;43.264;26.940;2023-03-25T04:38:54;98475.53;;;11.39;63.02
40872;BME280;26591;43.264;26.940;2023-03-25T04:41:21;98466.47;;;11.33;61.99
40872;BME280;26591;43.264;26.940;2023-03-25T04:43:46;98476.41;;;11.46;62.52
40872;BME280;26591;43.264;26.940;2023-03-25T04:46:14;98477.63;;;11.80;62.23
40872;BME280;26591;43.264;26.940;2023-03-25T04:48:42;98476.59;;;12.18;61.42
40872;BME280;26591;43.264;26.940;2023-03-25T04:51:13;98482.78;;;12.82;60.61
40872;BME280;26591;43.264;26.940;2023-03-25T04:53:40;98490.13;;;13.50;58.40
40872;BME280;26591;43.264;26.940;2023-03-25T04:56:09;98481.06;;;14.13;56.42
40872;BME280;26591;43.264;26.940;2023-03-25T04:58:41;98484.38;;;14.89;54.80
40872;BME280;26591;43.264;26.940;2023-03-25T05:01:07;98493.53;;;15.27;53.06
40872;BME280;26591;43.264;26.940;2023-03-25T05:03:36;98486.91;;;15.82;52.05
40872;BME280;26591;43.264;26.940;2023-03-25T05:06:04;98483.31;;;16.33;50.46
40872;BME280;26591;43.264;26.940;2023-03-25T05:08:30;98490.41;;;16.72;49.53
40872;BME280;26591;43.264;26.940;2023-03-25T05:10:58;98491.38;;;17.21;47.84
40872;BME280;26591;43.264;26.940;2023-03-25T05:13:23;98498.00;;;17.56;47.32
40872;BME280;26591;43.264;26.940;2023-03-25T05:15:51;98496.81;;;17.82;46.78
40872;BME280;26591;43.264;26.940;2023-03-25T05:18:19;98494.59;;;18.10;46.08
40872;BME280;26591;43.264;26.940;2023-03-25T05:20:45;98496.94;;;18.18;44.78
40872;BME280;26591;43.264;26.940;2023-03-25T05:23:15;98493.59;;;18.35;44.75
40872;BME280;26591;43.264;26.940;2023-03-25T05:25:51;98481.88;;;18.48;44.02
40872;BME280;26591;43.264;26.940;2023-03-25T05:28:19;98480.97;;;18.78;43.64
40872;BME280;26591;43.264;26.940;2023-03-25T05:30:46;98484.09;;;18.98;43.22
40872;BME280;26591;43.264;26.940;2023-03-25T05:33:13;98478.28;;;19.13;42.33
40872;BME280;26591;43.264;26.940;2023-03-25T05:35:40;98481.44;;;19.10;42.80
40872;BME280;26591;43.264;26.940;2023-03-25T05:38:07;98479.13;;;19.43;42.33
40872;BME280;26591;43.264;26.940;2023-03-25T05:40:33;98481.63;;;19.73;40.94
40872;BME280;26591;43.264;26.940;2023-03-25T05:43:00;98481.94;;;19.77;40.91
40872;BME280;26591;43.264;26.940;2023-03-25T05:45:27;98484.25;;;19.85;40.83
40872;BME280;26591;43.264;26.940;2023-03-25T05:47:53;98480.59;;;20.20;40.42
40872;BME280;26591;43.264;26.940;2023-03-25T05:50:19;98479.69;;;20.32;40.36
40872;BME280;26591;43.264;26.940;2023-03-25T05:52:46;98486.53;;;20.39;39.56
40872;BME280;26591;43.264;26.940;2023-03-25T05:55:19;98485.50;;;20.57;39.30
40872;BME280;26591;43.264;26.940;2023-03-25T05:57:46;98479.94;;;20.64;39.43
40872;BME280;26591;43.264;26.940;2023-03-25T06:00:12;98487.19;;;20.81;38.93
40872;BME280;26591;43.264;26.940;2023-03-25T06:02:40;98485.31;;;20.64;39.98
40872;BME280;26591;43.264;26.940;2023-03-25T06:05:11;98477.00;;;21.00;39.46
40872;BME280;26591;43.264;26.940;2023-03-25T06:07:44;98483.38;;;20.77;38.88
40872;BME280;26591;43.264;26.940;2023-03-25T06:10:12;98485.38;;;21.03;39.01
40872;BME280;26591;43.264;26.940;2023-03-25T06:12:42;98483.44;;;20.99;39.04
40872;BME280;26591;43.264;26.940;2023-03-25T06:15:10;98481.22;;;20.96;39.07
40872;BME280;26591;43.264;26.940;2023-03-25T06:17:38;98491.91;;;20.91;38.76
40872;BME280;26591;43.264;26.940;2023-03-25T06:20:09;98494.75;;;20.67;39.16
40872;BME280;26591;43.264;26.940;2023-03-25T06:22:40;98490.28;;;20.72;38.93
40872;BME280;26591;43.264;26.940;2023-03-25T06:25:10;98493.31;;;20.76;39.79
40872;BME280;26591;43.264;26.940;2023-03-25T06:27:36;98494.06;;;21.11;38.93
40872;BME280;26591;43.264;26.940;2023-03-25T06:30:18;98499.66;;;21.48;38.32
40872;BME280;26591;43.264;26.940;2023-03-25T06:32:44;98492.03;;;21.40;38.40
40872;BME280;26591;43.264;26.940;2023-03-25T06:35:15;98489.06;;;21.42;38.26
40872;BME280;26591;43.264;26.940;2023-03-25T06:37:44;98485.09;;;21.44;38.01
40872;BME280;26591;43.264;26.940;2023-03-25T06:40:11;98497.41;;;21.85;37.07
40872;BME280;26591;43.264;26.940;2023-03-25T06:42:37;98498.97;;;21.80;37.86
40872;BME280;26591;43.264;26.940;2023-03-25T06:45:03;98494.00;;;21.94;37.23
40872;BME280;26591;43.264;26.940;2023-03-25T06:47:29;98504.31;;;21.75;37.66
40872;BME280;26591;43.264;26.940;2023-03-25T06:49:54;98505.22;;;21.86;38.11
40872;BME280;26591;43.264;26.940;2023-03-25T06:52:20;98502.13;;;21.72;37.56
40872;BME280;26591;43.264;26.940;2023-03-25T06:54:45;98501.44;;;21.82;38.14
40872;BME280;26591;43.264;26.940;2023-03-25T06:57:11;98496.50;;;22.01;37.88
40872;BME280;26591;43.264;26.940;2023-03-25T06:59:36;98491.38;;;22.32;37.01
40872;BME280;26591;43.264;26.940;2023-03-25T07:02:02;98491.94;;;22.34;37.43
40872;BME280;26591;43.264;26.940;2023-03-25T07:04:27;98495.88;;;21.94;37.13
40872;BME280;26591;43.264;26.940;2023-03-25T07:06:53;98496.59;;;21.62;38.49
40872;BME280;26591;43.264;26.940;2023-03-25T07:09:18;98500.47;;;21.49;38.31
40872;BME280;26591;43.264;26.940;2023-03-25T07:11:44;98490.25;;;21.95;38.08
40872;BME280;26591;43.264;26.940;2023-03-25T07:14:10;98489.22;;;21.74;38.33
40872;BME280;26591;43.264;26.940;2023-03-25T07:16:35;98488.38;;;21.52;38.30
40872;BME280;26591;43.264;26.940;2023-03-25T07:19:01;98490.94;;;20.97;39.74
40872;BME280;26591;43.264;26.940;2023-03-25T07:21:26;98484.97;;;20.61;40.19
40872;BME280;26591;43.264;26.940;2023-03-25T07:23:52;98489.00;;;20.75;39.90
40872;BME280;26591;43.264;26.940;2023-03-25T07:26:17;98481.13;;;21.08;39.18
40872;BME280;26591;43.264;26.940;2023-03-25T07:28:43;98488.47;;;21.57;38.40
40872;BME280;26591;43.264;26.940;2023-03-25T07:31:13;98486.56;;;21.79;38.42
40872;BME280;26591;43.264;26.940;2023-03-25T07:33:38;98473.19;;;21.62;38.31
40872;BME280;26591;43.264;26.940;2023-03-25T07:36:05;98481.56;;;21.44;38.95
40872;BME280;26591;43.264;26.940;2023-03-25T07:38:33;98478.56;;;21.18;39.37
40872;BME280;26591;43.264;26.940;2023-03-25T07:40:59;98478.47;;;20.73;39.58
40872;BME280;26591;43.264;26.940;2023-03-25T07:43:28;98478.19;;;21.31;39.36
40872;BME280;26591;43.264;26.940;2023-03-25T07:45:54;98482.44;;;21.49;39.25
40872;BME280;26591;43.264;26.940;2023-03-25T07:48:23;98475.06;;;21.62;38.70
40872;BME280;26591;43.264;26.940;2023-03-25T07:50:50;98473.09;;;21.79;38.72
40872;BME280;26591;43.264;26.940;2023-03-25T07:53:15;98469.16;;;21.21;39.58
40872;BME280;26591;43.264;26.940;2023-03-25T07:55:41;98470.03;;;21.04;39.58
40872;BME280;26591;43.264;26.940;2023-03-25T07:58:07;98459.19;;;20.77;40.60
40872;BME280;26591;43.264;26.940;2023-03-25T08:00:32;98459.47;;;21.19;40.10
40872;BME280;26591;43.264;26.940;2023-03-25T08:02:58;98458.13;;;20.78;40.92
40872;BME280;26591;43.264;26.940;2023-03-25T08:05:23;98462.16;;;21.19;40.60
40872;BME280;26591;43.264;26.940;2023-03-25T08:07:52;98460.91;;;21.49;40.65
40872;BME280;26591;43.264;26.940;2023-03-25T08:10:18;98458.28;;;21.32;40.48
40872;BME280;26591;43.264;26.940;2023-03-25T08:12:44;98453.00;;;20.98;41.25
40872;BME280;26591;43.264;26.940;2023-03-25T08:15:11;98450.94;;;20.83;40.66
40872;BME280;26591;43.264;26.940;2023-03-25T08:17:37;98447.97;;;20.28;41.81
40872;BME280;26591;43.264;26.940;2023-03-25T08:20:04;98445.31;;;20.85;40.80
40872;BME280;26591;43.264;26.940;2023-03-25T08:22:30;98447.81;;;21.36;40.97
40872;BME280;26591;43.264;26.940;2023-03-25T08:24:56;98448.16;;;21.17;40.49
40872;BME280;26591;43.264;26.940;2023-03-25T08:27:22;98447.03;;;21.36;39.96
40872;BME280;26591;43.264;26.940;2023-03-25T08:29:48;98448.50;;;21.48;40.14
40872;BME280;26591;43.264;26.940;2023-03-25T08:32:23;98444.53;;;21.78;40.10
40872;BME280;26591;43.264;26.940;2023-03-25T08:34:48;98444.03;;;21.82;40.22
40872;BME280;26591;43.264;26.940;2023-03-25T08:37:14;98438.28;;;20.84;40.85
40872;BME280;26591;43.264;26.940;2023-03-25T08:39:42;98434.25;;;21.03;40.92
40872;BME280;26591;43.264;26.940;2023-03-25T08:42:10;98441.81;;;21.51;40.01
40872;BME280;26591;43.264;26.940;2023-03-25T08:44:36;98435.25;;;21.19;40.99
40872;BME280;26591;43.264;26.940;2023-03-25T08:47:02;98438.47;;;20.60;41.86
40872;BME280;26591;43.264;26.940;2023-03-25T08:49:28;98436.97;;;20.30;43.53
40872;BME280;26591;43.264;26.940;2023-03-25T08:51:54;98426.00;;;20.88;42.45
40872;BME280;26591;43.264;26.940;2023-03-25T08:54:23;98433.59;;;20.57;43.21
40872;BME280;26591;43.264;26.940;2023-03-25T08:56:48;98434.25;;;20.81;42.33
40872;BME280;26591;43.264;26.940;2023-03-25T08:59:14;98428.19;;;20.74;42.46
40872;BME280;26591;43.264;26.940;2023-03-25T09:01:39;98422.19;;;20.67;41.82
40872;BME280;26591;43.264;26.940;2023-03-25T09:04:06;98420.53;;;20.83;42.57
40872;BME280;26591;43.264;26.940;2023-03-25T09:06:32;98422.66;;;20.64;42.77
40872;BME280;26591;43.264;26.940;2023-03-25T09:08:57;98418.75;;;20.71;42.72
40872;BME280;26591;43.264;26.940;2023-03-25T09:11:25;98408.72;;;21.06;42.48
40872;BME280;26591;43.264;26.940;2023-03-25T09:13:50;98416.56;;;21.08;42.54
40872;BME280;26591;43.264;26.940;2023-03-25T09:16:16;98412.28;;;21.12;42.16
40872;BME280;26591;43.264;26.940;2023-03-25T09:18:41;98413.69;;;20.92;42.81
40872;BME280;26591;43.264;26.940;2023-03-25T09:21:07;98412.09;;;21.18;42.77
40872;BME280;26591;43.264;26.940;2023-03-25T09:23:33;98409.66;;;21.94;41.60
40872;BME280;26591;43.264;26.940;2023-03-25T09:26:00;98413.59;;;21.31;41.88
40872;BME280;26591;43.264;26.940;2023-03-25T09:28:26;98411.22;;;21.35;41.29
40872;BME280;26591;43.264;26.940;2023-03-25T09:30:53;98406.19;;;21.93;40.67
40872;BME280;26591;43.264;26.940;2023-03-25T09:33:19;98410.19;;;22.23;39.89
40872;BME280;26591;43.264;26.940;2023-03-25T09:35:45;98406.91;;;21.84;40.27
40872;BME280;26591;43.264;26.940;2023-03-25T09:38:11;98405.94;;;21.68;39.98
40872;BME280;26591;43.264;26.940;2023-03-25T09:40:40;98406.34;;;21.82;39.97
40872;BME280;26591;43.264;26.940;2023-03-25T09:46:03;98391.25;;;21.80;39.25
40872;BME280;26591;43.264;26.940;2023-03-25T09:48:41;98390.66;;;21.73;39.64
40872;BME280;26591;43.264;26.940;2023-03-25T09:51:37;98382.13;;;22.19;39.27
40872;BME280;26591;43.264;26.940;2023-03-25T09:56:43;98375.31;;;22.12;39.74
40872;BME280;26591;43.264;26.940;2023-03-25T09:59:09;98375.72;;;21.93;39.15
40872;BME280;26591;43.264;26.940;2023-03-25T10:12:31;98360.84;;;22.55;37.86
40872;BME280;26591;43.264;26.940;2023-03-25T10:15:03;98353.47;;;22.99;37.22
40872;BME280;26591;43.264;26.940;2023-03-25T10:17:42;98345.47;;;23.25;37.29
40872;BME280;26591;43.264;26.940;2023-03-25T10:20:22;98336.34;;;23.67;38.21
40872;BME280;26591;43.264;26.940;2023-03-25T10:25:37;98333.22;;;23.01;38.53
40872;BME280;26591;43.264;26.940;2023-03-25T10:28:10;98326.59;;;23.30;37.79
40872;BME280;26591;43.264;26.940;2023-03-25T10:30:45;98322.25;;;23.34;37.82
40872;BME280;26591;43.264;26.940;2023-03-25T10:33:23;98316.78;;;23.08;37.38
40872;BME280;26591;43.264;26.940;2023-03-25T10:35:53;98306.59;;;23.31;37.86
40872;BME280;26591;43.264;26.940;2023-03-25T10:38:23;98306.88;;;23.29;37.92
40872;BME280;26591;43.264;26.940;2023-03-25T10:41:25;98302.03;;;23.68;37.84
40872;BME280;26591;43.264;26.940;2023-03-25T10:43:42;98305.53;;;23.78;37.97
40872;BME280;26591;43.264;26.940;2023-03-25T10:46:32;98296.09;;;23.76;37.67
40872;BME280;26591;43.264;26.940;2023-03-25T10:49:01;98283.94;;;23.84;36.84
40872;BME280;26591;43.264;26.940;2023-03-25T10:51:29;98280.69;;;23.87;36.61
40872;BME280;26591;43.264;26.940;2023-03-25T10:53:56;98278.28;;;23.49;37.12
40872;BME280;26591;43.264;26.940;2023-03-25T10:56:29;98274.22;;;23.88;36.99
40872;BME280;26591;43.264;26.940;2023-03-25T10:59:00;98269.84;;;24.23;36.63
40872;BME280;26591;43.264;26.940;2023-03-25T11:01:35;98275.91;;;24.60;36.60
40872;BME280;26591;43.264;26.940;2023-03-25T11:04:05;98267.38;;;24.37;36.51
40872;BME280;26591;43.264;26.940;2023-03-25T11:06:37;98246.31;;;24.23;36.20
40872;BME280;26591;43.264;26.940;2023-03-25T11:11:34;98241.16;;;24.32;33.06
40872;BME280;26591;43.264;26.940;2023-03-25T11:14:00;98243.41;;;24.80;33.76
40872;BME280;26591;43.264;26.940;2023-03-25T11:16:35;98240.84;;;25.39;32.96
40872;BME280;26591;43.264;26.940;2023-03-25T11:19:05;98240.78;;;25.50;33.34
40872;BME280;26591;43.264;26.940;2023-03-25T11:21:32;98236.50;;;25.73;31.90
40872;BME280;26591;43.264;26.940;2023-03-25T11:24:00;98233.50;;;25.74;33.64
40872;BME280;26591;43.264;26.940;2023-03-25T11:26:36;98222.22;;;25.92;31.23
40872;BME280;26591;43.264;26.940;2023-03-25T11:29:12;98225.91;;;26.01;31.20
40872;BME280;26591;43.264;26.940;2023-03-25T11:31:41;98213.69;;;25.79;27.48
40872;BME280;26591;43.264;26.940;2023-03-25T11:36:39;98211.91;;;25.94;27.62
40872;BME280;26591;43.264;26.940;2023-03-25T11:39:41;98208.09;;;25.95;27.89
40872;BME280;26591;43.264;26.940;2023-03-25T11:42:31;98202.56;;;25.81;27.93
40872;BME280;26591;43.264;26.940;2023-03-25T11:45:22;98191.44;;;25.53;28.27
40872;BME280;26591;43.264;26.940;2023-03-25T11:47:49;98188.09;;;25.90;27.52
40872;BME280;26591;43.264;26.940;2023-03-25T11:50:21;98192.06;;;25.98;27.47
40872;BME280;26591;43.264;26.940;2023-03-25T11:52:48;98188.44;;;26.08;26.95
40872;BME280;26591;43.264;26.940;2023-03-25T11:55:20;98183.59;;;26.29;27.99
40872;BME280;26591;43.264;26.940;2023-03-25T11:57:48;98183.28;;;26.31;26.87
40872;BME280;26591;43.264;26.940;2023-03-25T12:05:39;98168.13;;;25.81;28.31
40872;BME280;26591;43.264;26.940;2023-03-25T12:08:15;98168.13;;;25.57;28.79
40872;BME280;26591;43.264;26.940;2023-03-25T12:10:57;98159.75;;;26.02;28.15
40872;BME280;26591;43.264;26.940;2023-03-25T12:16:35;98166.63;;;25.94;29.13
40872;BME280;26591;43.264;26.940;2023-03-25T12:20:25;98156.88;;;25.93;29.04
40872;BME280;26591;43.264;26.940;2023-03-25T12:30:18;98158.19;;;25.12;31.42
40872;BME280;26591;43.264;26.940;2023-03-25T12:35:46;98158.19;;;25.96;31.10
40872;BME280;26591;43.264;26.940;2023-03-25T12:38:44;98149.66;;;25.59;30.69
40872;BME280;26591;43.264;26.940;2023-03-25T12:41:15;98134.16;;;25.35;31.89
40872;BME280;26591;43.264;26.940;2023-03-25T12:55:00;98114.44;;;25.00;32.43
40872;BME280;26591;43.264;26.940;2023-03-25T12:58:03;98107.38;;;25.04;31.88
40872;BME280;26591;43.264;26.940;2023-03-25T13:00:53;98102.16;;;25.13;31.50
40872;BME280;26591;43.264;26.940;2023-03-25T13:09:04;98108.66;;;24.82;31.66
40872;BME280;26591;43.264;26.940;2023-03-25T13:11:57;98106.59;;;24.64;31.25
40872;BME280;26591;43.264;26.940;2023-03-25T13:20:23;98100.75;;;25.16;31.36
40872;BME280;26591;43.264;26.940;2023-03-25T13:22:54;98099.88;;;24.96;30.75
40872;BME280;26591;43.264;26.940;2023-03-25T13:25:28;98096.31;;;25.01;31.53
40872;BME280;26591;43.264;26.940;2023-03-25T13:27:57;98104.66;;;24.70;31.32
40872;BME280;26591;43.264;26.940;2023-03-25T13:30:37;98105.59;;;24.49;31.07
40872;BME280;26591;43.264;26.940;2023-03-25T13:33:19;98114.13;;;24.27;31.81
40872;BME280;26591;43.264;26.940;2023-03-25T13:35:53;98111.25;;;24.08;31.26
40872;BME280;26591;43.264;26.940;2023-03-25T13:40:57;98103.84;;;24.29;31.44
40872;BME280;26591;43.264;26.940;2023-03-25T13:43:38;98103.44;;;24.46;30.21
40872;BME280;26591;43.264;26.940;2023-03-25T13:46:12;98100.25;;;24.39;31.45
40872;BME280;26591;43.264;26.940;2023-03-25T13:51:08;98097.41;;;24.60;30.98
40872;BME280;26591;43.264;26.940;2023-03-25T13:53:48;98096.28;;;24.66;30.35
40872;BME280;26591;43.264;26.940;2023-03-25T14:01:52;98077.88;;;24.28;30.39
40872;BME280;26591;43.264;26.940;2023-03-25T14:07:42;98082.91;;;23.90;31.81
40872;BME280;26591;43.264;26.940;2023-03-25T14:12:56;98081.84;;;23.96;31.37
40872;BME280;26591;43.264;26.940;2023-03-25T14:15:35;98073.03;;;23.59;32.16
40872;BME280;26591;43.264;26.940;2023-03-25T14:18:03;98082.84;;;23.35;33.29
40872;BME280;26591;43.264;26.940;2023-03-25T14:20:34;98079.59;;;23.12;33.20
40872;BME280;26591;43.264;26.940;2023-03-25T14:23:04;98080.97;;;22.78;34.38
40872;BME280;26591;43.264;26.940;2023-03-25T14:25:39;98087.16;;;22.84;34.06
40872;BME280;26591;43.264;26.940;2023-03-25T14:28:11;98074.47;;;22.59;35.06
40872;BME280;26591;43.264;26.940;2023-03-25T14:30:39;98076.91;;;22.65;35.60
40872;BME280;26591;43.264;26.940;2023-03-25T14:33:09;98074.50;;;22.64;34.64
40872;BME280;26591;43.264;26.940;2023-03-25T14:38:55;98079.06;;;22.99;35.48
40872;BME280;26591;43.264;26.940;2023-03-25T14:41:13;98068.84;;;22.91;35.08
40872;BME280;26591;43.264;26.940;2023-03-25T14:43:44;98079.34;;;22.88;35.61
40872;BME280;26591;43.264;26.940;2023-03-25T14:46:15;98067.19;;;23.00;35.90
40872;BME280;26591;43.264;26.940;2023-03-25T14:48:52;98070.44;;;22.97;35.45
40872;BME280;26591;43.264;26.940;2023-03-25T14:54:33;98075.84;;;22.71;35.19
40872;BME280;26591;43.264;26.940;2023-03-25T14:57:21;98068.31;;;22.79;35.42
40872;BME280;26591;43.264;26.940;2023-03-25T14:59:50;98063.16;;;22.67;35.66
40872;BME280;26591;43.264;26.940;2023-03-25T15:02:26;98060.41;;;22.36;36.00
40872;BME280;26591;43.264;26.940;2023-03-25T15:04:58;98063.16;;;22.67;36.15
40872;BME280;26591;43.264;26.940;2023-03-25T15:10:06;98063.63;;;22.33;36.53
40872;BME280;26591;43.264;26.940;2023-03-25T15:12:36;98062.81;;;22.22;36.20
40872;BME280;26591;43.264;26.940;2023-03-25T15:15:24;98070.56;;;21.98;36.37
40872;BME280;26591;43.264;26.940;2023-03-25T15:17:49;98068.53;;;21.62;37.35
40872;BME280;26591;43.264;26.940;2023-03-25T15:25:45;98072.94;;;21.84;36.88
40872;BME280;26591;43.264;26.940;2023-03-25T15:28:42;98076.19;;;21.38;37.30
40872;BME280;26591;43.264;26.940;2023-03-25T15:53:19;98093.22;;;21.11;37.37